Latest Weather Observations for Mullion

IDN60801

Issued at 2:53 pm EDT Tuesday 18 January 2022 (issued every 10 minutes, with the page automatically refreshed every 10 minutes)

About weather observations | Map of weather stations | Latest weather observations for NSW | Other Formats
Station Details ID: 250070 Name: MULLION (PCS) Lat: -35.11 Lon: 148.85 Height: 750.0 m

Portable automatic weather stations (PAWS) are operated by other organisations, such as Fire and Emergency Services, and are included here by agreement. Portable stations may be deployed to a location for a short period and their location may be subject to change without notice. Wind observations from these stations are provided from heights of either three (3) or ten (10) metres above ground level (AGL).

Data from the previous 72 hours. | See also: Recent months for locations in New South Wales
Date/Time
EDT
Temp
°C
App
Temp
°C
Dew
Point
°C
Rel
Hum
%
Delta-T
°C
Wind Press
QNH
hPa
Press
MSL
hPa
Rain since
9am
mm
Dir  Spd
km/h
Gust
km/h
Spd
kts
Gust
kts
18/02:40pm 17.4 15.8 17.4 100 0.0 ESE 22 24 12 13 1016.0 - 0.8
18/02:30pm 17.4 16.2 17.4 100 0.0 ESE 20 22 11 12 1016.1 - 0.6
18/02:20pm 17.3 15.6 17.3 100 0.0 E 22 24 12 13 1016.0 - 0.4
18/02:10pm 17.4 15.8 17.4 100 0.0 E 22 24 12 13 1016.3 - 0.2
18/02:00pm 17.3 15.2 17.2 99 0.1 ESE 24 26 13 14 1016.3 - 0.0
18/01:50pm 18.0 16.8 17.6 97 0.3 SE 20 24 11 13 1016.3 - 0.0
18/01:40pm 19.4 20.3 18.5 94 0.6 S 11 20 6 11 1016.4 - 0.0
18/01:30pm 19.4 20.4 17.8 90 1.0 W 9 11 5 6 1016.6 - 0.0
18/01:20pm 19.3 19.6 17.8 91 1.0 W 13 13 7 7 1016.6 - 0.0
18/01:10pm 19.0 19.6 17.8 93 0.8 WNW 11 13 6 7 1016.5 - 0.0
18/01:00pm 18.9 19.5 17.7 93 0.8 WNW 11 13 6 7 1016.7 - 0.0
18/12:50pm 19.0 19.2 17.7 92 0.8 NW 13 13 7 7 1016.7 - 0.0
18/12:40pm 18.9 19.0 17.5 92 0.9 NW 13 15 7 8 1016.7 - 0.0
18/12:30pm 18.9 18.7 17.5 92 0.9 NW 15 15 8 8 1016.6 - 0.0
18/12:20pm 18.8 18.7 17.8 94 0.6 NW 15 17 8 9 1016.7 - 0.0
18/12:10pm 18.7 18.1 17.6 93 0.7 NW 17 19 9 10 1016.7 - 0.0
18/12:00pm 19.1 19.5 18.2 94 0.6 N 13 17 7 9 1016.7 - 0.0
18/11:50am 19.3 19.8 18.3 94 0.6 N 13 15 7 8 1016.8 - 0.0
18/11:40am 19.4 20.7 18.4 94 0.6 NNW 9 11 5 6 1017.0 - 0.0
18/11:30am 19.1 20.2 17.9 93 0.8 NNW 9 11 5 6 1016.9 - 0.0
18/11:20am 18.7 19.4 17.9 95 0.5 NW 11 13 6 7 1016.7 - 0.0
18/11:10am 18.4 19.0 17.6 95 0.5 NW 11 11 6 6 1017.2 - 0.0
18/11:00am 18.2 18.3 17.5 96 0.4 NW 13 15 7 8 1016.9 - 0.0
18/10:50am 18.1 18.6 17.5 96 0.4 NW 11 15 6 8 1016.9 - 0.0
18/10:40am 18.1 17.4 17.4 96 0.4 NW 17 19 9 10 1016.9 - 0.0
18/10:30am 18.0 17.8 17.5 97 0.3 NW 15 19 8 10 1016.8 - 0.0
18/10:20am 18.1 17.9 17.6 97 0.3 NW 15 15 8 8 1016.7 - 0.0
18/10:10am 18.2 18.1 17.8 97 0.3 NW 15 15 8 8 1016.8 - 0.0
18/10:00am 18.4 18.3 17.8 96 0.4 NW 15 17 8 9 1016.7 - 0.0
18/09:50am 18.6 18.8 17.7 94 0.6 NW 13 15 7 8 1016.5 - 0.0
18/09:40am 18.7 18.2 17.0 90 1.1 NW 15 17 8 9 1016.4 - 0.0
18/09:30am 18.9 19.0 17.4 91 0.9 NW 13 13 7 7 1016.5 - 0.0
18/09:20am 19.4 20.8 17.9 91 1.0 NW 7 11 4 6 1016.3 - 0.0
18/09:10am 19.8 21.4 16.9 83 1.8 N 4 7 2 4 1016.4 - 0.0
18/09:00am 19.9 21.6 16.2 79 2.3 ENE 2 4 1 2 1016.4 - 0.2
18/08:50am 19.8 21.6 16.4 81 2.1 E 2 4 1 2 1016.2 - 0.2
18/08:40am 19.6 21.7 17.3 86 1.4 ESE 2 4 1 2 1016.2 - 0.2
18/08:30am 19.5 20.8 17.2 86 1.4 ESE 6 6 3 3 1016.1 - 0.2
18/08:20am 19.5 20.4 16.1 81 2.1 ESE 6 6 3 3 1016.0 - 0.2
18/08:10am 19.6 21.3 16.3 81 2.0 E 2 4 1 2 1016.1 - 0.2
18/08:00am 19.5 20.7 16.0 80 2.2 ESE 4 6 2 3 1016.0 - 0.2
18/07:50am 19.3 20.1 15.9 81 2.1 ESE 6 6 3 3 1015.8 - 0.2
18/07:40am 19.0 20.0 16.3 84 1.7 ESE 6 6 3 3 1015.7 - 0.2
18/07:30am 18.9 19.8 16.1 84 1.7 ESE 6 7 3 4 1015.6 - 0.2
18/07:20am 18.9 19.7 15.9 83 1.8 ESE 6 7 3 4 1015.3 - 0.2
18/07:10am 18.9 20.6 16.1 84 1.7 ESE 2 4 1 2 1015.2 - 0.2
18/07:00am 18.7 19.9 15.8 83 1.8 SE 4 4 2 2 1015.3 - 0.2
18/06:50am 18.6 20.2 15.9 84 1.7 E 2 4 1 2 1015.2 - 0.2
18/06:40am 18.6 20.5 15.8 84 1.7 CALM 0 0 0 0 1015.1 - 0.2
18/06:30am 18.6 19.7 15.7 83 1.8 E 4 6 2 3 1015.0 - 0.2
18/06:20am 18.7 19.3 15.9 84 1.7 ENE 7 7 4 4 1014.9 - 0.2
18/06:10am 18.7 19.5 15.8 83 1.8 E 6 7 3 4 1014.8 - 0.2
18/06:00am 18.8 19.6 15.8 83 1.8 E 6 6 3 3 1014.8 - 0.2
18/05:50am 19.0 20.1 15.7 81 2.0 E 4 6 2 3 1014.8 - 0.2
18/05:40am 19.1 20.1 15.4 79 2.3 ESE 4 6 2 3 1014.8 - 0.2
18/05:30am 19.1 20.0 15.2 78 2.4 ESE 4 6 2 3 1014.7 - 0.2
18/05:20am 19.2 20.1 15.1 77 2.5 E 4 6 2 3 1014.7 - 0.2
18/05:10am 19.2 19.6 14.8 75 2.7 ESE 6 6 3 3 1014.7 - 0.2
18/05:00am 19.2 19.6 14.7 75 2.7 ESE 6 7 3 4 1014.6 - 0.2
18/04:50am 18.9 19.1 14.6 76 2.6 ESE 7 7 4 4 1014.5 - 0.2
18/04:40am 18.7 19.5 16.3 86 1.5 SE 7 9 4 5 1014.4 - 0.2
18/04:30am 18.9 19.1 14.8 77 2.5 SSE 7 7 4 4 1014.5 - 0.2
18/04:20am 19.2 19.6 15.4 78 2.3 S 7 9 4 5 1014.5 - 0.2
18/04:10am 19.1 19.5 15.2 78 2.4 SSE 7 9 4 5 1014.5 - 0.2
18/04:00am 19.0 19.6 15.2 78 2.3 ESE 6 6 3 3 1014.5 - 0.2
18/03:50am 19.0 19.5 15.1 78 2.4 SSE 6 6 3 3 1014.5 - 0.2
18/03:40am 18.9 19.2 14.9 77 2.4 S 7 7 4 4 1014.6 - 0.2
18/03:30am 18.7 19.0 15.1 79 2.2 SSE 7 7 4 4 1014.7 - 0.2
18/03:20am 19.0 19.8 16.4 85 1.6 SE 7 9 4 5 1014.7 - 0.2
18/03:10am 19.6 19.8 14.6 73 3.0 ESE 7 9 4 5 1014.8 - 0.2
18/03:00am 19.2 19.4 14.7 75 2.7 ESE 7 9 4 5 1014.8 - 0.2
18/02:50am 19.0 19.7 15.5 80 2.1 SSE 6 13 3 7 1015.1 - 0.2
18/02:40am 19.8 17.7 14.6 72 3.1 SSW 19 20 10 11 1015.1 - 0.2
18/02:30am 19.8 17.7 14.8 73 3.0 SW 19 22 10 12 1015.3 - 0.2
18/02:20am 19.4 18.3 14.4 73 3.0 WSW 13 20 7 11 1015.4 - 0.2
18/02:10am 19.2 18.5 15.4 78 2.3 W 13 15 7 8 1015.6 - 0.2
18/02:00am 19.4 18.7 15.5 78 2.4 W 13 15 7 8 1015.7 - 0.2
18/01:50am 19.5 19.2 15.4 77 2.5 W 11 13 6 7 1015.7 - 0.2
18/01:40am 19.5 19.5 15.3 76 2.6 W 9 11 5 6 1015.6 - 0.2
18/01:30am 19.0 18.8 15.7 81 2.0 W 11 13 6 7 1015.8 - 0.2
18/01:20am 18.9 19.0 16.4 85 1.5 WNW 11 11 6 6 1015.8 - 0.2
18/01:10am 19.3 19.6 16.0 81 2.0 WNW 9 11 5 6 1015.9 - 0.2
18/01:00am 19.4 19.7 16.1 81 2.0 WNW 9 9 5 5 1015.8 - 0.2
18/12:50am 19.5 19.8 16.0 80 2.2 W 9 9 5 5 1015.8 - 0.2
18/12:40am 19.5 19.4 15.9 80 2.2 W 11 11 6 6 1015.9 - 0.2
18/12:30am 19.4 19.3 16.0 81 2.1 WNW 11 11 6 6 1016.0 - 0.2
18/12:20am 19.4 19.3 16.0 81 2.1 WNW 11 13 6 7 1016.0 - 0.2
18/12:10am 19.3 18.9 16.2 82 1.9 W 13 13 7 7 1016.1 - 0.2
18/12:00am 19.4 19.4 16.3 82 1.9 WNW 11 11 6 6 1016.2 - 0.2
 
Date/Time
EDT
Temp
°C
App
Temp
°C
Dew
Point
°C
Rel
Hum
%
Delta-T
°C
Wind Press
QNH
hPa
Press
MSL
hPa
Rain since
9am
mm
Dir  Spd
km/h
Gust
km/h
Spd
kts
Gust
kts
17/11:50pm 19.4 19.4 16.3 82 1.9 NW 11 11 6 6 1016.3 - 0.2
17/11:40pm 19.5 19.5 16.2 81 2.0 NW 11 11 6 6 1016.3 - 0.2
17/11:30pm 19.6 20.0 16.3 81 2.0 NNW 9 11 5 6 1016.3 - 0.2
17/11:20pm 19.8 20.2 16.2 80 2.2 NNW 9 9 5 5 1016.3 - 0.2
17/11:10pm 20.0 20.7 16.1 78 2.4 NNW 7 9 4 5 1016.3 - 0.2
17/11:00pm 20.1 20.7 15.8 76 2.6 N 7 7 4 4 1016.2 - 0.2
17/10:50pm 20.1 20.7 15.4 74 2.9 NNE 6 7 3 4 1016.2 - 0.2
17/10:40pm 20.0 20.7 15.7 76 2.6 N 6 6 3 3 1016.3 - 0.2
17/10:30pm 20.0 20.8 15.9 77 2.5 NW 6 7 3 4 1016.3 - 0.2
17/10:20pm 20.2 21.0 15.8 76 2.7 NW 6 7 3 4 1016.3 - 0.2
17/10:10pm 20.3 20.9 15.2 72 3.1 NW 6 7 3 4 1016.1 - 0.2
17/10:00pm 20.3 20.9 15.8 75 2.8 WNW 7 7 4 4 1016.2 - 0.2
17/09:50pm 20.4 20.8 15.2 72 3.2 W 7 7 4 4 1016.2 - 0.2
17/09:40pm 20.3 20.7 15.3 73 3.1 WSW 7 9 4 5 1016.0 - 0.2
17/09:30pm 20.1 20.1 15.1 73 3.0 WSW 9 9 5 5 1016.0 - 0.2
17/09:20pm 20.0 19.9 15.9 77 2.5 WSW 11 13 6 7 1016.0 - 0.2
17/09:10pm 20.1 20.0 16.1 78 2.5 WSW 11 13 6 7 1016.1 - 0.2
17/09:00pm 20.1 20.1 15.3 74 2.9 W 9 13 5 7 1016.1 - 0.2
17/08:50pm 20.0 19.9 16.1 78 2.4 SW 11 15 6 8 1016.1 - 0.2
17/08:40pm 20.3 19.8 15.8 75 2.8 SSW 13 17 7 9 1015.9 - 0.2
17/08:30pm 20.4 20.2 15.6 74 2.9 SSW 11 15 6 8 1015.9 - 0.2
17/08:20pm 20.3 20.4 15.6 74 2.9 WSW 9 13 5 7 1016.0 - 0.2
17/08:10pm 20.7 20.2 15.8 73 3.0 W 13 15 7 8 1016.1 - 0.0
17/08:00pm 21.2 21.2 15.3 69 3.6 WSW 9 13 5 7 1015.9 - 0.0
17/07:50pm 21.4 21.7 15.9 71 3.4 W 9 11 5 6 1015.7 - 0.0
17/07:40pm 21.7 21.0 15.5 68 3.8 W 13 15 7 8 1015.5 - 0.0
17/07:30pm 22.0 21.4 15.6 67 4.0 W 13 17 7 9 1015.4 - 0.0
17/07:20pm 22.2 22.0 15.7 66 4.0 WNW 11 19 6 10 1015.2 - 0.0
17/07:10pm 22.3 21.9 15.3 64 4.3 WNW 11 13 6 7 1015.2 - 0.0
17/07:00pm 22.4 22.4 15.3 64 4.4 W 9 13 5 7 1015.1 - 0.0
17/06:50pm 22.5 23.1 15.9 66 4.1 WNW 7 11 4 6 1015.1 - 0.0
17/06:40pm 22.6 22.9 15.9 66 4.2 W 9 11 5 6 1015.0 - 0.0
17/06:30pm 23.0 23.6 15.7 63 4.5 W 7 11 4 6 1014.9 - 0.0
17/06:20pm 23.4 24.2 15.9 62 4.7 W 6 7 3 4 1014.8 - 0.0
17/06:10pm 23.4 23.9 15.5 61 4.9 WSW 7 11 4 6 1014.7 - 0.0
17/06:00pm 23.2 23.5 15.0 60 5.0 W 7 9 4 5 1014.6 - 0.0
17/05:50pm 23.0 23.3 15.1 61 4.9 W 7 11 4 6 1014.6 - 0.0
17/05:40pm 22.7 22.1 14.6 60 4.9 W 11 13 6 7 1014.6 - 0.0
17/05:30pm 22.7 23.2 15.6 64 4.4 WNW 7 9 4 5 1014.6 - 0.0
17/05:20pm 22.8 23.0 14.6 60 5.0 W 7 11 4 6 1014.6 - 0.0
17/05:10pm 22.9 22.8 14.9 60 4.9 WSW 9 15 5 8 1014.5 - 0.0
17/05:00pm 22.5 20.6 15.1 63 4.5 WSW 19 22 10 12 1014.5 - 0.0
17/04:50pm 22.5 22.5 15.2 63 4.5 W 9 20 5 11 1014.4 - 0.0
17/04:40pm 22.4 21.9 15.0 63 4.5 SW 11 26 6 14 1014.2 - 0.0
17/04:30pm 22.4 20.1 14.6 61 4.8 WSW 20 24 11 13 1014.5 - 0.0
17/04:20pm 22.5 19.8 14.5 60 4.9 WSW 22 28 12 15 1014.7 - 0.0
17/04:10pm 22.7 19.6 14.4 59 5.0 WSW 24 30 13 16 1014.8 - 0.0
17/04:00pm 22.8 21.0 14.5 59 5.1 WSW 17 20 9 11 1014.7 - 0.0
17/03:50pm 23.0 22.4 14.6 59 5.1 WSW 11 19 6 10 1014.7 - 0.0
17/03:40pm 23.2 22.2 14.6 58 5.3 SW 13 19 7 10 1014.5 - 0.0
17/03:30pm 23.2 21.0 14.4 57 5.4 WSW 19 28 10 15 1014.7 - 0.0
17/03:20pm 23.3 20.4 13.9 55 5.7 W 22 32 12 17 1014.6 - 0.0
17/03:10pm 23.4 18.9 13.8 54 5.8 W 30 35 16 19 1014.7 - 0.0
17/03:00pm 23.5 20.6 14.0 55 5.8 W 22 32 12 17 1014.6 - 0.0
17/02:50pm 23.6 21.2 14.3 56 5.7 W 20 26 11 14 1014.7 - 0.0
17/02:40pm 23.7 20.9 14.4 56 5.7 WSW 22 30 12 16 1014.6 - 0.0
17/02:30pm 23.8 19.9 14.4 55 5.7 WSW 28 32 15 17 1014.8 - 0.0
17/02:20pm 24.0 21.8 14.4 55 5.9 W 19 28 10 15 1014.9 - 0.0
17/02:10pm 24.0 22.4 15.1 57 5.5 WSW 17 26 9 14 1014.7 - 0.0
17/02:00pm 24.3 22.0 14.6 54 6.0 W 20 24 11 13 1014.7 - 0.0
17/01:50pm 24.6 21.7 15.1 55 5.9 W 24 28 13 15 1014.9 - 0.0
17/01:40pm 24.7 21.5 15.3 56 5.8 W 26 30 14 16 1014.7 - 0.0
17/01:30pm 24.9 22.7 16.0 57 5.6 W 22 30 12 16 1014.7 - 0.0
17/01:20pm 25.0 23.2 16.0 57 5.7 W 20 26 11 14 1014.8 - 0.0
17/01:10pm 25.0 22.9 16.3 58 5.5 W 22 28 12 15 1015.1 - 0.0
17/01:00pm 25.0 23.4 15.9 57 5.7 W 19 20 10 11 1014.9 - 0.0
17/12:50pm 24.8 23.4 17.1 62 4.9 WNW 20 24 11 13 1015.0 - 0.0
17/12:40pm 24.6 22.0 16.9 62 4.9 WNW 26 30 14 16 1015.1 - 0.0
17/12:30pm 24.8 22.4 17.4 63 4.8 WNW 26 32 14 17 1015.3 - 0.0
17/12:20pm 25.2 24.0 17.5 62 5.0 WNW 20 26 11 14 1015.3 - 0.0
17/12:10pm 25.1 24.7 18.0 64 4.6 WNW 17 20 9 11 1015.5 - 0.0
17/12:00pm 24.0 23.1 17.7 68 4.1 NW 19 24 10 13 1015.2 - 0.0
17/11:50am 24.0 23.2 18.1 69 3.8 NW 19 20 10 11 1015.2 - 0.0
17/11:40am 24.2 24.5 18.8 72 3.5 NW 15 17 8 9 1015.3 - 0.0
17/11:30am 24.7 24.7 18.2 67 4.2 NNW 15 17 8 9 1015.2 - 0.0
17/11:20am 24.9 25.4 18.4 67 4.2 NW 13 15 7 8 1015.3 - 0.0
17/11:10am 24.7 25.5 19.1 71 3.7 NW 13 15 7 8 1015.2 - 0.0
17/11:00am 23.8 24.3 18.3 71 3.6 NW 13 13 7 7 1015.4 - 0.0
17/10:50am 23.2 23.8 18.5 75 3.1 NW 13 15 7 8 1015.4 - 0.0
17/10:40am 22.8 23.9 18.9 78 2.5 WNW 11 13 6 7 1015.6 - 0.0
17/10:30am 22.8 23.2 18.1 75 3.0 WNW 13 15 7 8 1015.5 - 0.0
17/10:20am 22.9 23.8 18.3 75 3.0 WNW 11 15 6 8 1015.5 - 0.0
17/10:10am 23.6 25.4 18.3 72 3.4 WNW 6 9 3 5 1015.2 - 0.0
17/10:00am 23.2 25.8 18.3 74 3.2 E 2 6 1 3 1014.9 - 0.0
17/09:50am 22.6 25.0 17.9 75 3.0 E 2 6 1 3 1014.8 - 0.0
17/09:40am 21.7 23.7 17.8 78 2.5 ESE 4 6 2 3 1014.8 - 0.0
17/09:30am 21.8 23.3 17.6 77 2.7 SE 6 7 3 4 1014.7 - 0.0
17/09:20am 21.3 22.4 17.2 77 2.6 ESE 7 9 4 5 1014.9 - 0.0
17/09:10am 20.7 22.0 17.6 82 2.0 ESE 7 9 4 5 1015.0 - 0.0
17/09:00am 20.3 21.1 17.2 82 2.0 ESE 9 11 5 6 1014.9 - 0.0
17/08:50am 20.2 20.4 16.8 81 2.1 SE 11 13 6 7 1014.7 - 0.0
17/08:40am 20.5 20.6 17.4 82 2.0 SE 13 13 7 7 1014.5 - 0.0
17/08:30am 20.1 19.8 17.4 84 1.7 SE 15 17 8 9 1014.7 - 0.0
17/08:20am 19.6 19.3 17.4 87 1.4 SE 15 17 8 9 1014.6 - 0.0
17/08:10am 19.6 18.9 17.3 86 1.4 SSE 17 19 9 10 1014.7 - 0.0
17/08:00am 19.9 18.6 16.9 83 1.9 SSE 19 20 10 11 1014.6 - 0.0
17/07:50am 19.7 18.9 17.0 84 1.7 SSE 17 19 9 10 1014.5 - 0.0
17/07:40am 19.4 18.7 17.3 88 1.3 SSE 17 19 9 10 1014.3 - 0.0
17/07:30am 18.9 17.9 16.6 86 1.4 SSE 17 19 9 10 1014.6 - 0.0
17/07:20am 18.4 17.4 16.6 89 1.1 SSE 17 19 9 10 1014.3 - 0.0
17/07:10am 17.9 16.3 16.4 91 0.9 SSE 20 20 11 11 1014.4 - 0.0
17/07:00am 17.8 16.1 16.3 91 0.9 SSE 20 22 11 12 1014.1 - 0.0
17/06:50am 17.2 15.5 16.2 94 0.6 S 20 24 11 13 1013.9 - 0.0
17/06:40am 17.3 15.2 16.3 94 0.6 SSE 22 24 12 13 1012.8 - 0.0
17/06:30am 17.4 15.7 16.2 93 0.7 S 20 22 11 12 1013.8 - 0.0
17/06:20am 17.2 15.5 16.2 94 0.6 SSE 20 20 11 11 1013.5 - 0.0
17/06:10am 17.1 15.6 16.3 95 0.5 SSE 19 20 10 11 1013.3 - 0.0
17/06:00am 17.0 15.5 16.4 96 0.4 SSE 19 20 10 11 1013.2 - 0.0
17/05:50am 17.1 15.6 16.4 96 0.4 SSE 19 20 10 11 1013.6 - 0.0
17/05:40am 17.0 15.5 16.4 96 0.4 SSE 19 20 10 11 1013.4 - 0.0
17/05:30am 17.0 15.6 16.6 97 0.2 SSE 19 20 10 11 1013.3 - 0.0
17/05:20am 17.0 15.5 16.7 98 0.2 SSE 20 22 11 12 1013.2 - 0.0
17/05:10am 17.1 15.6 16.7 97 0.2 SSE 20 22 11 12 1013.0 - 0.0
17/05:00am 17.1 15.8 16.7 97 0.2 SSE 19 20 10 11 1013.2 - 0.0
17/04:50am 17.1 15.6 16.7 97 0.2 SSE 20 22 11 12 1013.2 - 0.0
17/04:40am 17.0 15.5 16.7 98 0.2 SSE 20 20 11 11 1013.3 - 0.0
17/04:30am 17.1 15.6 16.8 98 0.2 SSE 20 20 11 11 1013.4 - 0.0
17/04:20am 17.2 15.8 16.9 98 0.2 SSE 20 20 11 11 1013.5 - 0.0
17/04:10am 17.2 15.8 16.9 98 0.2 SE 20 20 11 11 1013.5 - 0.0
17/04:00am 17.2 15.8 16.9 98 0.2 SE 20 20 11 11 1013.5 - 0.0
17/03:50am 17.2 16.4 17.0 99 0.1 SE 17 19 9 10 1013.4 - 0.0
17/03:40am 17.3 16.1 17.0 98 0.2 SSE 19 20 10 11 1013.5 - 0.0
17/03:30am 17.3 16.1 17.0 98 0.2 SSE 19 19 10 10 1013.5 - 0.0
17/03:20am 17.5 16.3 17.1 97 0.2 SSE 19 19 10 10 1013.7 - 0.0
17/03:10am 17.6 16.5 17.2 97 0.2 SSE 19 20 10 11 1013.8 - 0.0
17/03:00am 17.5 16.4 17.2 98 0.2 SSE 19 19 10 10 1013.8 - 0.0
17/02:50am 17.5 16.4 17.2 98 0.2 SSE 19 20 10 11 1013.8 - 0.0
17/02:40am 17.6 16.3 17.3 98 0.2 SE 20 20 11 11 1013.8 - 0.0
17/02:30am 17.7 16.6 17.4 98 0.2 SE 19 20 10 11 1013.9 - 0.0
17/02:20am 17.8 16.7 17.4 97 0.3 SE 19 19 10 10 1014.2 - 0.0
17/02:10am 17.8 16.8 17.5 98 0.2 SSE 19 20 10 11 1014.3 - 0.0
17/02:00am 17.8 16.8 17.5 98 0.2 SSE 19 20 10 11 1014.5 - 0.0
17/01:50am 18.0 16.8 17.6 97 0.3 SSE 20 22 11 12 1014.6 - 0.0
17/01:40am 18.1 17.2 17.7 97 0.3 SSE 19 20 10 11 1014.8 - 0.0
17/01:30am 18.1 17.2 17.8 98 0.2 SSE 19 22 10 12 1014.7 - 0.0
17/01:20am 18.3 17.3 17.9 97 0.3 SSE 20 22 11 12 1014.8 - 0.0
17/01:10am 18.4 17.0 18.0 97 0.3 SE 22 26 12 14 1014.9 - 0.0
17/01:00am 18.3 16.4 17.7 96 0.4 SE 24 26 13 14 1014.7 - 0.0
17/12:50am 18.3 16.4 17.7 96 0.4 ESE 24 26 13 14 1014.7 - 0.0
17/12:40am 18.4 16.1 17.7 96 0.4 SE 26 28 14 15 1014.4 - 0.0
17/12:30am 18.4 16.1 17.7 96 0.4 SE 26 30 14 16 1014.3 - 0.0
17/12:20am 18.3 16.1 17.9 97 0.3 SE 26 28 14 15 1014.5 - 0.0
17/12:10am 18.4 15.5 17.9 97 0.3 SE 30 32 16 17 1014.3 - 0.0
17/12:00am 18.3 15.4 17.9 97 0.3 SE 30 32 16 17 1014.0 - 0.0
 
Date/Time
EDT
Temp
°C
App
Temp
°C
Dew
Point
°C
Rel
Hum
%
Delta-T
°C
Wind Press
QNH
hPa
Press
MSL
hPa
Rain since
9am
mm
Dir  Spd
km/h
Gust
km/h
Spd
kts
Gust
kts
16/11:50pm 18.3 15.8 18.0 98 0.2 SE 28 30 15 16 1013.7 - 0.0
16/11:40pm 18.4 15.5 18.0 97 0.3 SE 30 33 16 18 1013.9 - 0.0
16/11:30pm 18.5 15.2 17.9 96 0.4 SSE 32 32 17 17 1013.8 - 0.0
16/11:20pm 18.6 15.9 17.6 94 0.6 SE 28 32 15 17 1013.9 - 0.0
16/11:10pm 18.9 16.2 17.6 92 0.8 SE 28 28 15 15 1013.9 - 0.0
16/11:00pm 19.0 17.2 16.9 88 1.3 SSE 22 24 12 13 1014.1 - 0.0
16/10:50pm 19.4 17.7 16.2 82 2.0 SSE 20 22 11 12 1014.3 - 0.0
16/10:40pm 19.4 17.9 16.7 84 1.7 SE 20 22 11 12 1013.8 - 0.0
16/10:30pm 20.1 17.8 14.1 68 3.6 SE 19 20 10 11 1013.5 - 0.0
16/10:20pm 20.2 18.2 15.5 74 2.9 ESE 20 24 11 13 1013.8 - 0.0
16/10:10pm 20.7 19.2 16.3 76 2.7 E 19 22 10 12 1013.5 - 0.0
16/10:00pm 22.8 21.0 12.2 51 6.2 N 13 30 7 16 1012.9 - 0.0
16/09:50pm 24.2 22.0 9.5 39 8.3 W 11 13 6 7 1012.9 - 0.0
16/09:40pm 23.9 21.7 10.7 43 7.6 WNW 13 13 7 7 1012.9 - 0.0
16/09:30pm 24.2 21.9 10.5 42 7.9 WNW 13 13 7 7 1012.7 - 0.0
16/09:20pm 24.5 22.2 10.4 41 8.1 W 13 15 7 8 1012.5 - 0.0
16/09:10pm 24.8 22.4 10.1 39 8.4 W 13 13 7 7 1012.3 - 0.0
16/09:00pm 24.9 22.6 10.3 39 8.4 W 13 15 7 8 1012.2 - 0.0
16/08:50pm 25.1 22.3 10.1 38 8.6 W 15 17 8 9 1012.0 - 0.0
16/08:40pm 25.1 22.3 10.0 38 8.6 W 15 17 8 9 1012.2 - 0.0
16/08:30pm 25.1 22.7 10.1 38 8.6 W 13 15 7 8 1012.1 - 0.0
16/08:20pm 25.2 22.4 10.1 38 8.6 W 15 17 8 9 1011.9 - 0.0
16/08:10pm 25.3 22.4 10.9 40 8.4 WNW 17 19 9 10 1012.0 - 0.0
16/08:00pm 26.0 23.1 11.1 39 8.7 WNW 17 17 9 9 1011.9 - 0.0
16/07:50pm 26.2 23.5 10.5 37 9.1 WNW 15 17 8 9 1011.7 - 0.0
16/07:40pm 26.1 23.4 10.2 36 9.2 WNW 15 15 8 8 1011.6 - 0.0
16/07:30pm 26.6 23.4 10.0 35 9.5 W 17 19 9 10 1011.4 - 0.0
16/07:20pm 27.3 24.1 10.1 34 9.9 WNW 17 20 9 11 1011.5 - 0.0
16/07:10pm 28.2 25.0 9.9 32 10.6 WNW 17 20 9 11 1011.5 - 0.0
16/07:00pm 28.5 25.9 10.7 33 10.4 WNW 15 17 8 9 1011.3 - 0.0
16/06:50pm 28.4 24.7 9.6 31 10.8 WNW 19 20 10 11 1011.3 - 0.0
16/06:40pm 28.7 25.5 10.1 31 10.8 W 17 20 9 11 1011.3 - 0.0
16/06:30pm 28.9 25.8 10.3 31 10.9 W 17 20 9 11 1011.2 - 0.0
16/06:20pm 28.8 25.2 9.8 30 11.0 W 19 22 10 12 1011.1 - 0.0
16/06:10pm 29.1 25.8 9.5 29 11.3 WNW 17 20 9 11 1011.1 - 0.0
16/06:00pm 28.7 24.9 9.8 30 10.9 W 20 24 11 13 1011.0 - 0.0
16/05:50pm 29.0 26.2 10.0 30 11.0 W 15 20 8 11 1011.0 - 0.0
16/05:40pm 29.2 25.8 9.1 28 11.5 W 17 20 9 11 1011.1 - 0.0
16/05:30pm 29.1 25.4 10.0 30 11.1 WNW 20 22 11 12 1011.2 - 0.0
16/05:20pm 29.0 25.4 9.8 30 11.1 W 19 24 10 13 1011.2 - 0.0
16/05:10pm 28.8 24.2 8.2 27 11.6 W 22 24 12 13 1011.2 - 0.0
16/05:00pm 29.0 25.7 10.9 32 10.7 W 19 22 10 12 1011.2 - 0.0
16/04:50pm 29.0 25.1 8.6 28 11.6 W 19 22 10 12 1011.2 - 0.0
16/04:40pm 28.9 25.6 9.7 30 11.1 WNW 17 20 9 11 1011.1 - 0.0
16/04:30pm 28.6 24.2 9.1 29 11.2 W 22 28 12 15 1011.4 - 0.0
16/04:20pm 28.7 24.5 9.7 30 11.0 WSW 22 28 12 15 1011.4 - 0.0
16/04:10pm 28.5 24.2 9.2 30 11.1 WSW 22 24 12 13 1011.5 - 0.0
16/04:00pm 28.4 24.1 9.5 30 10.9 W 22 28 12 15 1011.6 - 0.0
16/03:50pm 28.4 23.9 8.5 28 11.3 W 22 28 12 15 1011.6 - 0.0
16/03:40pm 28.6 24.5 10.1 31 10.8 WSW 22 28 12 15 1011.7 - 0.0
16/03:30pm 29.0 25.8 8.6 28 11.6 WSW 15 19 8 10 1011.7 - 0.0
16/03:20pm 28.9 25.8 8.9 28 11.4 WNW 15 20 8 11 1011.7 - 0.0
16/03:10pm 28.1 25.1 12.1 37 9.6 WNW 19 24 10 13 1011.6 - 0.0
16/03:00pm 28.3 26.8 13.1 39 9.3 WNW 13 20 7 11 1011.7 - 0.0
16/02:50pm 27.3 24.4 13.0 41 8.7 W 20 24 11 13 1011.7 - 0.0
16/02:40pm 27.7 25.2 13.5 41 8.7 WNW 19 24 10 13 1011.8 - 0.0
16/02:30pm 27.7 26.2 14.1 43 8.4 WNW 15 20 8 11 1012.1 - 0.0
16/02:20pm 26.7 24.5 14.3 46 7.6 NW 19 24 10 13 1012.0 - 0.0
16/02:10pm 26.7 25.8 15.8 51 6.9 NW 15 17 8 9 1012.0 - 0.0
16/02:00pm 27.0 25.8 16.0 51 7.0 WNW 17 22 9 12 1012.2 - 0.0
16/01:50pm 26.6 24.9 16.3 53 6.5 NW 20 28 11 15 1012.3 - 0.0
16/01:40pm 26.5 26.2 16.4 53 6.4 NNW 13 22 7 12 1012.4 - 0.0
16/01:30pm 26.1 24.8 16.7 56 6.0 NNW 19 22 10 12 1012.4 - 0.0
16/01:20pm 25.6 24.6 16.7 58 5.7 NNW 17 22 9 12 1012.5 - 0.0
16/01:10pm 25.8 25.9 17.4 59 5.4 NW 13 19 7 10 1012.7 - 0.0
16/01:00pm 25.5 25.8 17.9 63 4.9 NW 13 19 7 10 1012.8 - 0.0
16/12:50pm 25.3 25.3 17.3 61 5.1 NNW 13 19 7 10 1013.0 - 0.0
16/12:40pm 25.8 27.3 18.1 62 5.0 NNW 7 13 4 7 1013.0 - 0.0
16/12:30pm 25.1 25.3 16.8 60 5.3 NW 11 15 6 8 1013.1 - 0.0
16/12:20pm 25.5 26.2 17.1 59 5.4 N 9 13 5 7 1013.1 - 0.0
16/12:10pm 25.9 27.3 17.3 59 5.5 N 6 15 3 8 1013.3 - 0.0
16/12:00pm 25.8 27.8 17.8 61 5.2 NNE 4 7 2 4 1013.5 - 0.0
16/11:50am 25.2 27.2 18.7 67 4.3 NE 6 9 3 5 1013.4 - 0.0
16/11:40am 24.2 25.4 16.8 63 4.7 E 6 7 3 4 1013.5 - 0.0
16/11:30am 23.6 25.0 17.7 69 3.8 ESE 7 11 4 6 1013.5 - 0.0
16/11:20am 23.6 25.6 17.9 70 3.7 SSE 4 9 2 5 1013.4 - 0.0
16/11:10am 22.9 24.0 17.2 70 3.6 ESE 7 11 4 6 1013.3 - 0.0
16/11:00am 22.9 23.7 17.2 70 3.6 ESE 9 13 5 7 1013.3 - 0.0
16/10:50am 22.2 23.7 17.6 75 2.9 ESE 6 9 3 5 1013.4 - 0.0
16/10:40am 21.7 23.2 17.6 77 2.6 ESE 6 7 3 4 1013.4 - 0.0
16/10:30am 20.6 21.1 16.6 78 2.5 ESE 9 13 5 7 1013.3 - 0.0
16/10:20am 20.7 21.0 16.1 75 2.9 ESE 9 13 5 7 1013.2 - 0.0
16/10:10am 20.1 20.6 16.5 80 2.2 SSE 9 13 5 7 1013.3 - 0.0
16/10:00am 19.4 19.1 16.4 83 1.9 ESE 13 13 7 7 1013.1 - 0.0
16/09:50am 19.3 19.1 16.7 85 1.6 ESE 13 17 7 9 1013.0 - 0.0
16/09:40am 19.7 19.2 16.8 83 1.8 ESE 15 17 8 9 1013.0 - 0.0
16/09:30am 18.6 17.9 16.3 86 1.4 ESE 15 17 8 9 1013.0 - 0.0
16/09:20am 19.1 18.0 16.4 84 1.7 ESE 17 20 9 11 1012.9 - 0.0
16/09:10am 18.9 18.5 17.2 90 1.1 ESE 15 17 8 9 1013.0 - 0.0
16/09:00am 19.1 18.0 16.4 84 1.7 ESE 17 20 9 11 1013.0 - 3.0
16/08:50am 19.2 17.9 16.7 85 1.6 ESE 19 20 10 11 1012.9 - 3.0
16/08:40am 19.1 17.4 16.2 83 1.8 SE 20 22 11 12 1012.7 - 3.0
16/08:30am 18.6 16.8 16.0 85 1.6 ESE 20 20 11 11 1012.5 - 3.0
16/08:20am 18.7 17.1 16.1 85 1.6 ESE 19 20 10 11 1012.5 - 3.0
16/08:10am 18.7 17.2 16.2 85 1.5 SE 19 20 10 11 1012.2 - 3.0
16/08:00am 18.4 16.8 16.0 86 1.5 SE 19 20 10 11 1012.0 - 3.0
16/07:50am 18.2 16.6 15.9 86 1.4 ESE 19 19 10 10 1012.0 - 3.0
16/07:40am 18.2 17.0 16.1 87 1.3 ESE 17 17 9 9 1012.1 - 3.0
16/07:30am 18.3 17.3 15.7 85 1.6 SE 15 15 8 8 1012.0 - 3.0
16/07:20am 18.2 17.2 15.7 85 1.5 SE 15 15 8 8 1012.0 - 3.0
16/07:10am 17.7 15.9 15.5 87 1.3 SE 19 19 10 10 1011.7 - 3.0
16/07:00am 17.2 15.1 15.3 88 1.1 SE 20 20 11 11 1011.4 - 3.0
16/06:50am 17.0 15.2 15.5 91 0.9 SE 19 20 10 11 1011.3 - 3.0
16/06:40am 17.2 15.7 15.4 89 1.1 SE 17 19 9 10 1011.2 - 3.0
16/06:30am 17.0 15.8 15.1 88 1.1 SSE 15 17 8 9 1011.1 - 3.0
16/06:20am 16.9 14.9 14.9 88 1.2 SE 19 19 10 10 1010.8 - 3.0
16/06:10am 16.8 14.9 15.1 90 1.0 SE 19 19 10 10 1010.8 - 3.0
16/06:00am 16.7 15.1 15.0 90 1.0 SE 17 17 9 9 1010.7 - 3.0
16/05:50am 16.7 15.1 15.0 90 1.0 SE 17 17 9 9 1010.5 - 3.0
16/05:40am 17.0 15.8 15.0 88 1.2 SE 15 17 8 9 1010.5 - 3.0
16/05:30am 17.4 16.1 14.9 85 1.5 SE 15 15 8 8 1010.3 - 3.0
16/05:20am 17.5 16.2 14.9 85 1.6 SE 15 15 8 8 1010.2 - 3.0
16/05:10am 17.7 16.4 14.9 84 1.7 SE 15 15 8 8 1010.0 - 3.0
16/05:00am 17.8 16.5 14.8 82 1.8 SSE 15 17 8 9 1009.9 - 3.0
16/04:50am 17.8 16.4 14.6 81 1.9 S 15 17 8 9 1009.6 - 3.0
16/04:40am 17.8 16.8 14.5 81 2.0 S 13 13 7 7 1009.6 - 3.0
16/04:30am 17.8 16.7 14.2 79 2.1 S 13 15 7 8 1009.4 - 3.0
16/04:20am 18.2 17.4 13.9 76 2.5 SSE 11 13 6 7 1009.5 - 3.0
16/04:10am 18.2 17.3 13.7 75 2.7 SSE 11 13 6 7 1009.4 - 3.0
16/04:00am 17.7 17.3 14.0 79 2.2 SSE 9 11 5 6 1009.4 - 3.0
16/03:50am 17.8 17.1 14.3 80 2.1 ESE 11 13 6 7 1009.4 - 3.0
16/03:40am 18.1 17.5 14.5 79 2.2 ESE 11 11 6 6 1009.4 - 3.0
16/03:30am 18.5 17.9 14.5 77 2.4 SSE 11 11 6 6 1009.4 - 3.0
16/03:20am 18.5 17.0 13.2 71 3.1 SSE 13 15 7 8 1009.5 - 3.0
16/03:10am 18.4 16.5 13.1 71 3.1 SSE 15 15 8 8 1009.4 - 3.0
16/03:00am 18.6 16.8 13.2 71 3.2 SSE 15 15 8 8 1009.3 - 3.0
16/02:50am 18.6 16.6 12.8 69 3.4 SE 15 15 8 8 1009.3 - 3.0
16/02:40am 18.3 16.4 13.1 71 3.0 SE 15 17 8 9 1009.3 - 3.0
16/02:30am 18.4 16.8 12.8 70 3.3 SE 13 15 7 8 1009.3 - 3.0
16/02:20am 18.6 17.3 12.4 67 3.6 ESE 11 13 6 7 1009.2 - 3.0
16/02:10am 19.2 17.5 12.3 64 4.0 ESE 13 15 7 8 1009.3 - 3.0
16/02:00am 20.4 19.2 11.5 56 5.1 ESE 9 13 5 7 1009.1 - 3.0
16/01:50am 20.6 19.1 11.9 57 5.0 ESE 11 13 6 7 1009.2 - 3.0
16/01:40am 20.8 19.0 11.0 53 5.6 SSE 11 13 6 7 1009.3 - 3.0
16/01:30am 20.9 19.3 11.6 55 5.4 SE 11 13 6 7 1009.4 - 3.0
16/01:20am 21.3 19.9 11.0 51 5.9 SSE 9 13 5 7 1009.2 - 3.0
16/01:10am 20.8 20.0 11.1 53 5.5 SSE 6 7 3 4 1009.4 - 3.0
16/01:00am 21.2 20.4 10.9 51 5.9 SSE 6 7 3 4 1009.4 - 3.0
16/12:50am 21.0 19.5 10.5 51 5.9 SE 9 13 5 7 1009.6 - 3.0
16/12:40am 22.0 18.6 10.5 48 6.5 SW 19 20 10 11 1009.7 - 3.0
16/12:30am 22.3 18.3 10.4 46 6.8 SW 22 26 12 14 1009.7 - 3.0
16/12:20am 22.2 17.0 10.2 46 6.8 SW 28 30 15 16 1009.5 - 3.0
16/12:10am 22.1 16.9 10.3 47 6.7 SW 28 30 15 16 1009.3 - 3.0
16/12:00am 22.0 16.8 10.2 47 6.7 SW 28 30 15 16 1009.3 - 3.0
 
Date/Time
EDT
Temp
°C
App
Temp
°C
Dew
Point
°C
Rel
Hum
%
Delta-T
°C
Wind Press
QNH
hPa
Press
MSL
hPa
Rain since
9am
mm
Dir  Spd
km/h
Gust
km/h
Spd
kts
Gust
kts
15/11:50pm 21.9 17.6 10.6 48 6.4 WSW 24 26 13 14 1009.3 - 3.0
15/11:40pm 22.2 17.9 10.6 47 6.6 WSW 24 24 13 13 1009.5 - 3.0
15/11:30pm 22.4 18.0 10.4 46 6.8 WSW 24 26 13 14 1009.4 - 3.0
15/11:20pm 22.3 18.0 10.6 47 6.7 WSW 24 26 13 14 1009.4 - 3.0
15/11:10pm 22.2 17.9 10.6 47 6.6 WSW 24 26 13 14 1009.4 - 3.0
15/11:00pm 22.6 18.5 10.1 45 7.1 WSW 22 24 12 13 1009.5 - 3.0
15/10:50pm 22.6 18.4 9.9 44 7.2 WSW 22 24 12 13 1009.3 - 3.0
15/10:40pm 22.4 17.9 10.0 45 7.0 WSW 24 26 13 14 1009.3 - 3.0
15/10:30pm 22.4 18.0 10.3 46 6.9 WSW 24 26 13 14 1009.3 - 3.0
15/10:20pm 22.1 18.6 10.8 48 6.4 WSW 20 22 11 12 1009.4 - 3.0
15/10:10pm 22.1 18.7 11.4 50 6.2 WSW 20 22 11 12 1009.0 - 3.0
15/10:00pm 22.7 19.5 11.8 50 6.3 WSW 20 24 11 13 1009.1 - 3.0
15/09:50pm 22.8 19.3 11.0 47 6.8 WSW 20 24 11 13 1008.7 - 3.0
15/09:40pm 22.8 19.1 11.6 49 6.5 WSW 22 24 12 13 1008.6 - 3.0
15/09:30pm 23.0 19.6 11.3 47 6.8 WSW 20 22 11 12 1008.7 - 3.0
15/09:20pm 23.0 19.9 12.3 51 6.3 WSW 20 22 11 12 1008.5 - 3.0
15/09:10pm 23.2 20.4 12.5 51 6.3 W 19 19 10 10 1008.9 - 3.0
15/09:00pm 23.4 21.0 12.7 51 6.3 W 17 19 9 10 1009.0 - 3.0
15/08:50pm 23.6 22.1 14.1 55 5.8 W 15 15 8 8 1009.0 - 3.0
15/08:40pm 24.0 22.6 13.3 51 6.4 W 13 15 7 8 1009.1 - 3.0
15/08:30pm 24.2 23.4 12.9 49 6.7 WNW 9 13 5 7 1009.0 - 3.0
15/08:20pm 24.7 24.7 13.7 50 6.7 NW 6 7 3 4 1008.8 - 3.0
15/08:10pm 25.1 25.6 14.0 50 6.8 NW 4 6 2 3 1008.5 - 3.0
15/08:00pm 25.7 26.0 14.4 49 6.9 WNW 6 7 3 4 1008.5 - 3.0
15/07:50pm 26.0 25.7 14.5 49 7.1 W 9 11 5 6 1008.6 - 3.0
15/07:40pm 26.1 25.7 15.1 50 6.8 W 11 15 6 8 1007.3 - 3.0
15/07:30pm 26.3 24.7 14.0 46 7.5 W 15 19 8 10 1007.3 - 3.0
15/07:20pm 26.5 25.5 15.5 50 6.9 WNW 15 20 8 11 1005.9 - 3.0
15/07:10pm 26.9 26.5 16.1 51 6.8 WNW 13 17 7 9 1007.3 - 3.0
15/07:00pm 27.2 26.7 15.9 50 7.1 W 13 17 7 9 1007.0 - 3.0
15/06:50pm 27.1 26.1 15.6 49 7.2 WNW 15 17 8 9 1009.5 - 3.0
15/06:40pm 27.1 26.5 15.6 49 7.2 WNW 13 15 7 8 1007.6 - 3.0
15/06:30pm 27.1 25.8 14.7 46 7.7 WNW 15 17 8 9 1007.3 - 3.0
15/06:20pm 27.5 26.7 15.0 46 7.8 W 13 19 7 10 1007.3 - 3.0
15/06:10pm 27.4 25.4 14.0 43 8.2 WNW 17 20 9 11 1007.2 - 3.0
15/06:00pm 27.7 28.0 15.9 48 7.5 W 9 17 5 9 1007.1 - 3.0
15/05:50pm 27.3 27.5 16.7 52 6.8 W 11 13 6 7 1007.0 - 3.0
15/05:40pm 26.9 26.1 16.0 51 6.9 WNW 15 19 8 10 1007.0 - 3.0
15/05:30pm 26.7 25.4 16.7 54 6.4 WNW 19 20 10 11 1007.0 - 3.0
15/05:20pm 26.7 24.9 15.9 51 6.8 WNW 20 22 11 12 1007.1 - 3.0
15/05:10pm 26.7 25.1 16.0 52 6.8 WNW 19 22 10 12 1006.9 - 3.0
15/05:00pm 26.6 25.0 15.9 51 6.8 WNW 19 24 10 13 1006.9 - 3.0
15/04:50pm 25.5 22.6 16.1 56 5.9 WNW 26 30 14 16 1006.9 - 3.0
15/04:40pm 25.2 22.3 16.2 57 5.7 WNW 26 32 14 17 1006.8 - 3.0
15/04:30pm 26.2 24.5 16.2 54 6.3 WNW 20 26 11 14 1007.0 - 3.0
15/04:20pm 25.7 23.6 16.3 56 6.0 WNW 22 24 12 13 1007.1 - 3.0
15/04:10pm 25.9 24.4 16.4 55 6.0 W 19 22 10 12 1007.2 - 3.0
15/04:00pm 24.3 22.3 16.5 61 4.9 W 22 28 12 15 1007.4 - 3.0
15/03:50pm 24.2 21.2 15.8 59 5.3 NW 26 32 14 17 1007.3 - 3.0
15/03:40pm 25.0 22.9 16.3 58 5.5 WNW 22 26 12 14 1007.3 - 3.0
15/03:30pm 24.6 21.9 15.6 57 5.6 WNW 24 32 13 17 1007.4 - 3.0
15/03:20pm 25.1 22.2 16.0 57 5.7 WNW 26 32 14 17 1007.4 - 3.0
15/03:10pm 24.9 22.4 17.2 62 4.9 WNW 26 37 14 20 1007.5 - 3.0
15/03:00pm 25.7 22.7 15.8 54 6.2 WNW 26 32 14 17 1007.7 - 3.0

Other formats

Comma delimited format used in spreadsheet applications
http://www.bom.gov.au/fwo/IDN60801/IDN60801.99763.axf

JavaScript Object Notation format (JSON) in row-major order
http://www.bom.gov.au/fwo/IDN60801/IDN60801.99763.json

Data quality

Most of these data are generated automatically and are frequently updated. Quality checks on data are not normally performed. It is possible for incorrect values to appear. Refer to information at About Latest Weather Observations and please check the disclaimer before using these data.